Time;durP1;ratioP1;P1;durP2;ratioP2;P2;SDS_P1;SDS_P2;PMS_P1;PMS_P2;Temp;Humidity;BMP_temperature;BMP_pressure;BME280_temperature;BME280_humidity;BME280_pressure;Samples;Min_cycle;Max_cycle;Signal;HPM_P1;HPM_P2
2021/03/18 00:00:28;;;;;;;3.50;1.20;;;5.40;1.00;;;;;;5051957;28;20280;-50
2021/03/18 00:02:55;;;;;;;3.33;1.10;;;5.20;1.00;;;;;;5053160;28;20203;-49
2021/03/18 00:05:22;;;;;;;4.20;1.60;;;5.10;1.00;;;;;;5053073;28;20207;-47
2021/03/18 00:07:48;;;;;;;7.50;1.17;;;5.20;1.00;;;;;;5054073;28;20295;-49
2021/03/18 00:10:16;;;;;;;2.63;1.20;;;5.10;1.00;;;;;;5055696;28;20196;-50
2021/03/18 00:12:42;;;;;;;5.23;1.23;;;5.10;1.00;;;;;;5045418;28;20212;-50
2021/03/18 00:15:12;;;;;;;6.17;1.13;;;5.00;1.00;;;;;;5051738;28;20280;-50
2021/03/18 00:17:39;;;;;;;4.13;1.50;;;5.10;1.00;;;;;;5037833;28;20234;-50
2021/03/18 00:20:10;;;;;;;1.63;1.03;;;5.00;1.00;;;;;;5052431;28;20212;-49
2021/03/18 00:22:40;;;;;;;4.80;1.17;;;5.00;1.00;;;;;;5038606;28;20284;-50
2021/03/18 00:25:09;;;;;;;1.20;0.77;;;4.90;1.00;;;;;;5056019;28;20204;-48
2021/03/18 00:27:36;;;;;;;4.03;1.03;;;5.00;1.00;;;;;;5055727;28;20767;-49
2021/03/18 00:30:04;;;;;;;3.37;1.17;;;4.70;1.00;;;;;;5055413;28;20848;-50
2021/03/18 00:32:30;;;;;;;2.43;1.20;;;5.00;1.00;;;;;;5052266;28;20206;-48
2021/03/18 00:34:57;;;;;;;8.00;1.50;;;5.00;1.00;;;;;;5056386;28;20204;-48
2021/03/18 00:37:24;;;;;;;3.17;1.60;;;5.10;1.00;;;;;;5052623;28;20235;-47
2021/03/18 00:39:55;;;;;;;6.80;1.00;;;5.20;1.00;;;;;;5053778;28;20200;-49
2021/03/18 00:42:22;;;;;;;4.10;1.10;;;5.00;1.00;;;;;;5053971;28;20207;-49
2021/03/18 00:44:50;;;;;;;6.40;1.10;;;5.00;1.00;;;;;;5038898;28;20199;-49
2021/03/18 00:47:18;;;;;;;7.73;1.27;;;5.00;1.00;;;;;;5037197;28;20238;-49
2021/03/18 00:49:45;;;;;;;5.80;1.10;;;5.10;1.00;;;;;;5049322;28;20200;-48
2021/03/18 00:52:12;;;;;;;5.17;2.00;;;5.00;1.00;;;;;;5055193;28;20327;-48
2021/03/18 00:54:39;;;;;;;5.37;1.33;;;4.70;1.00;;;;;;5051745;28;20316;-48
2021/03/18 00:57:06;;;;;;;3.13;1.13;;;4.90;1.00;;;;;;5054264;28;20695;-50
2021/03/18 00:59:32;;;;;;;3.57;1.20;;;4.80;1.00;;;;;;5053347;28;20665;-48
2021/03/18 01:02:08;;;;;;;3.80;1.40;;;4.80;1.00;;;;;;5052096;28;20218;-48
2021/03/18 01:04:35;;;;;;;4.43;1.20;;;4.90;1.00;;;;;;5052785;28;20562;-48
2021/03/18 01:07:01;;;;;;;3.17;1.43;;;4.90;1.00;;;;;;5036679;28;20209;-47
2021/03/18 01:09:28;;;;;;;2.27;1.03;;;5.00;1.00;;;;;;5047187;28;20245;-48
2021/03/18 01:11:54;;;;;;;6.73;1.60;;;5.00;1.00;;;;;;5054542;28;20268;-49
2021/03/18 01:14:20;;;;;;;4.93;1.00;;;5.00;1.00;;;;;;5054538;28;20872;-48
2021/03/18 01:16:49;;;;;;;4.53;1.47;;;5.00;1.00;;;;;;5051163;28;20201;-48
2021/03/18 01:19:18;;;;;;;4.87;0.90;;;4.90;1.00;;;;;;5054632;28;20302;-50
2021/03/18 01:21:47;;;;;;;2.60;1.17;;;5.00;1.00;;;;;;5051650;28;20668;-50
2021/03/18 01:24:14;;;;;;;6.07;2.33;;;4.90;1.00;;;;;;5051684;28;20195;-50
2021/03/18 01:26:42;;;;;;;3.23;1.33;;;4.80;1.00;;;;;;5051961;28;20265;-50
2021/03/18 01:29:09;;;;;;;3.67;1.00;;;4.90;1.00;;;;;;5052574;28;20202;-51
2021/03/18 01:31:36;;;;;;;4.67;1.40;;;4.90;1.00;;;;;;5054714;28;20203;-49
2021/03/18 01:34:04;;;;;;;6.27;1.47;;;5.00;1.00;;;;;;5050536;28;20585;-49
2021/03/18 01:36:32;;;;;;;1.63;0.93;;;4.90;1.00;;;;;;5048524;28;20196;-50
2021/03/18 01:38:59;;;;;;;7.00;1.27;;;4.70;1.00;;;;;;5055937;28;20211;-48
2021/03/18 01:41:27;;;;;;;5.27;1.30;;;4.90;1.00;;;;;;5053636;28;20240;-47
2021/03/18 01:43:54;;;;;;;3.10;1.10;;;5.00;1.00;;;;;;5055417;28;20502;-48
2021/03/18 01:46:21;;;;;;;4.23;1.23;;;4.90;1.00;;;;;;5052478;28;20227;-49
2021/03/18 01:48:48;;;;;;;3.10;1.10;;;4.90;1.00;;;;;;5035987;28;20203;-49
2021/03/18 01:51:16;;;;;;;3.40;1.40;;;5.00;1.00;;;;;;5050739;28;20302;-49
2021/03/18 01:53:43;;;;;;;8.40;1.37;;;5.10;1.00;;;;;;5054698;28;20314;-50
2021/03/18 01:56:09;;;;;;;4.50;1.00;;;5.10;1.00;;;;;;5053586;28;20301;-50
2021/03/18 01:58:36;;;;;;;2.67;1.07;;;5.00;1.00;;;;;;5039103;28;20231;-50
2021/03/18 02:01:07;;;;;;;2.30;1.37;;;5.00;1.00;;;;;;5035983;28;20230;-49
2021/03/18 02:03:33;;;;;;;5.20;1.43;;;5.00;1.00;;;;;;5049282;28;20662;-49
2021/03/18 02:06:00;;;;;;;4.93;1.57;;;5.00;1.00;;;;;;5053209;28;20195;-49
2021/03/18 02:08:27;;;;;;;2.67;1.00;;;4.90;1.00;;;;;;5051165;28;20268;-48
2021/03/18 02:10:54;;;;;;;3.80;1.20;;;4.90;1.00;;;;;;5052739;28;20321;-47
2021/03/18 02:13:21;;;;;;;5.70;1.37;;;4.90;1.00;;;;;;5038243;28;20287;-48
2021/03/18 02:16:08;;;;;;;6.23;1.20;;;4.90;1.00;;;;;;5040328;28;20318;-48
2021/03/18 02:18:47;;;;;;;6.97;1.10;;;4.90;1.00;;;;;;5048741;28;20615;-49
2021/03/18 02:21:37;;;;;;;2.77;1.27;;;5.00;1.00;;;;;;5051217;28;20660;-49
2021/03/18 02:24:37;;;;;;;5.90;1.90;;;5.00;1.00;;;;;;5040031;28;20738;-50
2021/03/18 02:27:25;;;;;;;4.07;1.37;;;5.00;1.00;;;;;;5054439;28;20329;-49
2021/03/18 02:30:13;;;;;;;6.00;1.90;;;4.90;1.00;;;;;;5044833;28;20210;-48
2021/03/18 02:33:06;;;;;;;5.17;2.00;;;4.90;1.00;;;;;;5052157;28;20234;-46
2021/03/18 02:35:34;;;;;;;7.03;1.80;;;4.90;1.00;;;;;;5038757;28;20208;-49
2021/03/18 02:38:11;;;;;;;6.37;1.87;;;4.80;1.00;;;;;;5057384;28;20287;-49
2021/03/18 02:40:41;;;;;;;3.80;2.00;;;5.00;1.00;;;;;;5050603;28;20296;-47
2021/03/18 02:43:11;;;;;;;4.63;1.90;;;4.90;1.00;;;;;;5053933;28;20195;-49
2021/03/18 02:45:47;;;;;;;4.43;1.87;;;4.90;1.00;;;;;;5050077;28;20615;-49
2021/03/18 02:48:25;;;;;;;4.27;2.17;;;4.90;1.00;;;;;;5037277;28;20199;-48
2021/03/18 02:50:53;;;;;;;5.93;2.30;;;4.90;1.00;;;;;;5050736;28;20206;-48
2021/03/18 02:53:23;;;;;;;5.90;2.33;;;4.90;1.00;;;;;;5050482;28;20369;-49
2021/03/18 02:55:51;;;;;;;5.43;1.77;;;4.90;1.00;;;;;;5054369;28;20203;-50
2021/03/18 02:58:23;;;;;;;4.87;2.30;;;4.90;1.00;;;;;;5049034;28;20760;-50
2021/03/18 03:00:52;;;;;;;7.43;2.20;;;4.80;1.00;;;;;;5049267;28;20229;-48
2021/03/18 03:03:39;;;;;;;7.90;2.33;;;4.90;1.00;;;;;;5054057;28;20199;-49
2021/03/18 03:06:06;;;;;;;4.70;2.00;;;4.80;1.00;;;;;;5052067;28;20235;-49
2021/03/18 03:08:35;;;;;;;4.27;2.00;;;4.80;1.00;;;;;;5052593;28;20307;-48
2021/03/18 03:11:03;;;;;;;2.90;2.27;;;4.70;1.00;;;;;;5051644;28;20313;-50
2021/03/18 03:13:36;;;;;;;5.37;2.10;;;4.80;1.00;;;;;;5052043;28;20209;-49
2021/03/18 03:16:06;;;;;;;5.47;2.07;;;4.80;1.00;;;;;;5051669;28;20350;-49
2021/03/18 03:18:33;;;;;;;1.80;1.37;;;4.50;1.00;;;;;;5049621;28;20290;-48
2021/03/18 03:21:02;;;;;;;4.20;1.60;;;3.90;22.70;;;;;;5052876;28;20368;-47
2021/03/18 03:23:29;;;;;;;3.83;1.60;;;3.70;99.90;;;;;;5053330;28;20203;-48
2021/03/18 03:26:00;;;;;;;4.27;2.33;;;3.70;99.90;;;;;;5051793;28;20207;-49
2021/03/18 03:28:28;;;;;;;4.70;1.27;;;3.70;99.90;;;;;;5053018;28;20222;-48
2021/03/18 03:30:57;;;;;;;8.17;1.67;;;3.90;99.90;;;;;;5050034;28;20210;-48
2021/03/18 03:33:23;;;;;;;3.67;1.80;;;4.00;62.60;;;;;;5033757;28;20203;-47
2021/03/18 03:35:51;;;;;;;7.37;1.80;;;3.70;77.50;;;;;;5054156;28;20203;-48
2021/03/18 03:38:18;;;;;;;5.63;1.83;;;3.70;98.70;;;;;;5055823;28;20287;-48
2021/03/18 03:40:45;;;;;;;3.80;1.70;;;4.00;99.90;;;;;;5055274;28;20302;-49
2021/03/18 03:43:12;;;;;;;2.87;1.80;;;4.10;58.50;;;;;;5055628;28;20277;-48
2021/03/18 03:45:38;;;;;;;7.87;2.20;;;4.10;53.00;;;;;;5055812;28;20310;-47
2021/03/18 03:48:05;;;;;;;4.43;1.60;;;4.20;66.40;;;;;;5042377;28;20234;-50
2021/03/18 03:50:32;;;;;;;7.90;1.87;;;3.80;70.70;;;;;;5038900;28;20305;-48
2021/03/18 03:53:14;;;;;;;4.37;1.93;;;3.80;99.90;;;;;;5036341;28;20323;-47
2021/03/18 03:55:47;;;;;;;4.07;2.23;;;4.00;89.20;;;;;;5055033;28;20310;-47
2021/03/18 03:58:36;;;;;;;6.77;2.20;;;3.90;99.90;;;;;;5056394;28;20645;-47
2021/03/18 04:01:07;;;;;;;14.50;2.40;;;4.10;91.10;;;;;;5025414;28;20262;-48
2021/03/18 04:03:35;;;;;;;6.70;2.30;;;4.00;95.40;;;;;;5054992;28;20834;-49
2021/03/18 04:06:04;;;;;;;4.70;2.00;;;3.90;62.80;;;;;;5040546;28;20199;-47
2021/03/18 04:08:34;;;;;;;4.37;2.40;;;3.90;90.80;;;;;;5052842;28;20662;-49
2021/03/18 04:11:01;;;;;;;6.30;2.10;;;3.70;99.90;;;;;;5053787;28;20914;-47
2021/03/18 04:13:30;;;;;;;6.27;2.10;;;3.90;99.90;;;;;;5054831;28;20353;-49
2021/03/18 04:16:02;;;;;;;3.60;2.30;;;3.80;99.90;;;;;;5051433;28;20293;-49
2021/03/18 04:18:35;;;;;;;8.63;2.63;;;3.70;99.90;;;;;;5050380;28;20631;-48
2021/03/18 04:21:03;;;;;;;7.17;2.50;;;4.00;99.90;;;;;;5049194;28;20239;-49
2021/03/18 04:23:30;;;;;;;4.77;2.43;;;4.00;86.40;;;;;;5057337;28;20666;-49
2021/03/18 04:25:58;;;;;;;5.00;2.47;;;4.00;56.70;;;;;;5053916;28;20238;-48
2021/03/18 04:28:29;;;;;;;5.80;2.60;;;4.00;63.00;;;;;;5053047;28;20265;-48
2021/03/18 04:30:56;;;;;;;6.00;2.20;;;3.90;93.70;;;;;;5054312;28;20682;-49
2021/03/18 04:33:25;;;;;;;5.87;2.63;;;3.80;99.90;;;;;;5052894;28;20207;-48
2021/03/18 04:35:52;;;;;;;5.87;2.40;;;3.80;97.80;;;;;;5054805;28;20642;-50
2021/03/18 04:38:19;;;;;;;5.80;2.77;;;3.80;99.90;;;;;;5056967;28;20215;-46
2021/03/18 04:40:47;;;;;;;5.17;2.40;;;3.70;99.90;;;;;;5052665;28;20306;-47
2021/03/18 04:43:13;;;;;;;3.77;2.40;;;3.90;99.90;;;;;;5055499;28;20284;-50
2021/03/18 04:45:40;;;;;;;4.00;2.37;;;3.90;99.90;;;;;;5054968;28;20276;-48
2021/03/18 04:48:08;;;;;;;5.63;2.87;;;3.80;99.90;;;;;;5053641;28;20268;-48
2021/03/18 04:50:35;;;;;;;5.17;2.00;;;4.00;99.90;;;;;;5052961;28;20195;-49
2021/03/18 04:53:01;;;;;;;3.47;2.30;;;3.90;99.90;;;;;;5039265;28;20202;-48
2021/03/18 04:55:28;;;;;;;8.93;3.03;;;3.70;99.90;;;;;;5054416;28;20728;-48
2021/03/18 04:58:07;;;;;;;6.70;3.03;;;3.50;99.90;;;;;;5056666;28;20257;-47
2021/03/18 05:00:36;;;;;;;4.33;2.07;;;3.10;99.90;;;;;;5054786;28;20398;-50
2021/03/18 05:03:05;;;;;;;4.47;2.60;;;2.90;99.90;;;;;;5053305;28;20781;-48
2021/03/18 05:05:32;;;;;;;7.00;3.10;;;3.30;99.90;;;;;;5036923;28;20203;-49
2021/03/18 05:08:00;;;;;;;7.33;2.27;;;3.30;99.90;;;;;;5053099;28;20240;-50
2021/03/18 05:10:28;;;;;;;4.37;2.33;;;2.80;99.90;;;;;;5052257;28;20268;-49
2021/03/18 05:12:56;;;;;;;8.87;2.53;;;2.50;99.90;;;;;;5054168;28;20257;-48
2021/03/18 05:15:24;;;;;;;5.17;2.63;;;2.40;99.90;;;;;;5052432;28;20214;-48
2021/03/18 05:17:50;;;;;;;3.53;2.00;;;2.50;99.90;;;;;;5053940;28;20295;-47
2021/03/18 05:20:21;;;;;;;7.43;2.87;;;2.60;99.90;;;;;;5035958;28;20207;-48
2021/03/18 05:22:48;;;;;;;4.97;2.70;;;2.80;99.90;;;;;;5054449;28;20303;-49
2021/03/18 05:25:18;;;;;;;7.20;2.60;;;3.30;99.90;;;;;;5053704;28;20207;-49
2021/03/18 05:27:45;;;;;;;5.97;2.47;;;3.50;99.90;;;;;;5035499;28;20299;-48
2021/03/18 05:30:12;;;;;;;6.67;2.87;;;3.40;99.90;;;;;;5054054;28;20227;-48
2021/03/18 05:32:40;;;;;;;9.00;2.93;;;3.20;99.90;;;;;;5051541;28;20610;-49
2021/03/18 05:35:09;;;;;;;3.60;2.10;;;3.00;99.90;;;;;;5053093;28;20653;-48
2021/03/18 05:37:35;;;;;;;5.10;2.43;;;2.70;99.90;;;;;;5056343;28;20968;-47
2021/03/18 05:40:06;;;;;;;4.67;2.87;;;2.70;99.90;;;;;;5052403;28;20285;-54
2021/03/18 05:42:34;;;;;;;5.20;3.10;;;3.00;99.90;;;;;;5052292;28;21599;-47
2021/03/18 05:45:03;;;;;;;9.97;3.00;;;3.20;99.90;;;;;;5050404;28;20285;-47
2021/03/18 05:47:31;;;;;;;4.33;2.80;;;3.30;99.90;;;;;;5049889;28;20742;-48
2021/03/18 05:49:59;;;;;;;6.57;2.43;;;3.60;99.90;;;;;;5048589;28;20199;-48
2021/03/18 05:52:27;;;;;;;8.60;2.87;;;3.70;99.90;;;;;;5054678;28;20286;-48
2021/03/18 05:54:54;;;;;;;12.20;3.27;;;3.70;99.90;;;;;;5055403;28;20242;-47
2021/03/18 05:57:21;;;;;;;4.50;2.97;;;3.40;99.90;;;;;;5037307;28;20292;-46
2021/03/18 05:59:48;;;;;;;4.80;2.60;;;3.20;99.90;;;;;;5050068;28;20235;-47
2021/03/18 06:02:15;;;;;;;6.87;2.83;;;3.00;99.90;;;;;;5053271;28;20251;-48
2021/03/18 06:04:42;;;;;;;4.53;2.70;;;2.90;99.90;;;;;;5046108;28;20212;-47
2021/03/18 06:07:09;;;;;;;6.60;2.57;;;3.10;99.90;;;;;;5048864;28;20686;-49
2021/03/18 06:09:36;;;;;;;11.17;3.07;;;3.40;99.90;;;;;;5047428;28;20206;-48
2021/03/18 06:12:03;;;;;;;6.97;2.67;;;3.30;99.90;;;;;;5051830;28;20801;-48
2021/03/18 06:14:30;;;;;;;7.97;2.63;;;3.40;99.90;;;;;;5050823;28;21434;-49
2021/03/18 06:16:57;;;;;;;8.40;3.13;;;3.20;99.90;;;;;;5031298;28;20281;-49
2021/03/18 06:19:24;;;;;;;8.67;3.07;;;3.00;99.90;;;;;;5051115;28;20215;-48
2021/03/18 06:21:56;;;;;;;8.13;2.87;;;3.20;99.90;;;;;;5047695;28;20714;-49
2021/03/18 06:24:28;;;;;;;12.30;3.07;;;2.90;99.90;;;;;;5050205;28;20222;-48
2021/03/18 06:26:54;;;;;;;7.73;3.43;;;3.30;99.90;;;;;;5051017;28;20268;-47
2021/03/18 06:29:38;;;;;;;7.47;3.27;;;3.20;99.90;;;;;;5049796;28;20290;-48
2021/03/18 06:32:13;;;;;;;5.57;2.43;;;3.50;99.90;;;;;;5036092;28;20291;-49
2021/03/18 06:34:52;;;;;;;11.57;3.10;;;3.60;99.90;;;;;;5049558;28;20735;-47
2021/03/18 06:37:36;;;;;;;7.43;3.53;;;3.70;99.90;;;;;;5059074;28;20202;-50
2021/03/18 06:40:09;;;;;;;8.73;3.40;;;3.40;99.90;;;;;;5054342;28;20611;-49
2021/03/18 06:42:36;;;;;;;7.07;3.37;;;3.30;99.90;;;;;;5050544;28;20312;-49
2021/03/18 06:45:09;;;;;;;9.77;3.43;;;3.40;99.90;;;;;;5054250;28;20382;-47
2021/03/18 06:47:51;;;;;;;7.47;3.20;;;3.60;99.90;;;;;;5055395;28;20244;-48
2021/03/18 06:50:21;;;;;;;6.73;2.83;;;3.70;99.90;;;;;;5054183;28;20334;-49
2021/03/18 06:52:48;;;;;;;4.60;3.23;;;3.90;99.90;;;;;;5055138;28;20204;-49
2021/03/18 06:55:26;;;;;;;7.83;3.53;;;4.20;99.90;;;;;;5027330;28;20597;-49
2021/03/18 06:58:12;;;;;;;9.47;3.70;;;4.30;99.90;;;;;;5055757;28;20626;-47
2021/03/18 07:00:39;;;;;;;9.93;3.50;;;4.10;99.90;;;;;;5045705;28;20259;-49
2021/03/18 07:03:09;;;;;;;11.10;3.63;;;4.00;99.90;;;;;;5038084;28;20205;-47
2021/03/18 07:05:40;;;;;;;7.93;3.67;;;4.00;99.90;;;;;;5049169;28;20200;-49
2021/03/18 07:08:21;;;;;;;9.40;3.47;;;3.90;99.90;;;;;;5049103;28;22885;-48
2021/03/18 07:10:47;;;;;;;3.67;2.63;;;4.10;99.90;;;;;;5044314;28;20223;-49
2021/03/18 07:13:26;;;;;;;11.67;3.33;;;3.90;99.90;;;;;;5041954;28;20227;-49
2021/03/18 07:15:55;;;;;;;7.80;3.50;;;4.00;99.90;;;;;;5046774;28;20322;-47
2021/03/18 07:18:22;;;;;;;6.63;3.43;;;4.00;99.90;;;;;;5031856;28;20268;-48
2021/03/18 07:21:10;;;;;;;8.27;4.17;;;4.00;99.90;;;;;;5046196;28;20222;-48
2021/03/18 07:23:44;;;;;;;6.70;3.67;;;4.30;99.90;;;;;;5051855;28;20645;-50
2021/03/18 07:26:21;;;;;;;8.03;3.67;;;4.10;99.90;;;;;;5049940;28;20200;-47
2021/03/18 07:28:53;;;;;;;5.23;3.23;;;4.00;99.90;;;;;;5050361;28;20257;-49
2021/03/18 07:31:21;;;;;;;8.67;3.63;;;4.00;99.90;;;;;;5048493;28;20613;-47
2021/03/18 07:33:48;;;;;;;6.27;3.30;;;4.00;99.90;;;;;;5050336;28;20659;-49
2021/03/18 07:36:16;;;;;;;11.30;3.90;;;4.20;99.90;;;;;;5054374;28;20281;-49
2021/03/18 07:38:44;;;;;;;11.80;4.30;;;4.30;99.90;;;;;;5052229;28;20227;-47
2021/03/18 07:41:16;;;;;;;6.00;4.10;;;4.20;99.90;;;;;;5029402;28;20614;-46
2021/03/18 07:43:46;;;;;;;9.70;3.33;;;4.50;99.90;;;;;;5037879;28;20655;-48
2021/03/18 07:46:15;;;;;;;6.20;3.50;;;4.50;99.90;;;;;;5055151;28;20242;-48
2021/03/18 07:48:45;;;;;;;6.83;3.70;;;4.50;99.90;;;;;;5050948;28;20197;-48
2021/03/18 07:51:13;;;;;;;11.67;4.23;;;4.40;99.90;;;;;;5051450;28;20677;-48
2021/03/18 07:53:41;;;;;;;13.57;3.90;;;4.50;99.90;;;;;;5050776;28;20285;-49
2021/03/18 07:56:15;;;;;;;6.07;3.40;;;4.40;99.90;;;;;;5050726;28;20200;-50
2021/03/18 07:58:43;;;;;;;10.73;3.60;;;4.50;99.90;;;;;;5042644;28;20233;-47
2021/03/18 08:01:29;;;;;;;8.27;3.43;;;4.70;99.90;;;;;;5036465;28;20366;-46
2021/03/18 08:03:56;;;;;;;9.73;3.73;;;4.90;99.90;;;;;;5045800;28;20211;-48
2021/03/18 08:06:41;;;;;;;6.27;3.50;;;4.90;99.90;;;;;;5044368;28;20677;-46
2021/03/18 08:09:12;;;;;;;3.63;2.93;;;4.90;99.90;;;;;;5048395;28;20193;-47
2021/03/18 08:11:45;;;;;;;8.50;3.00;;;4.80;99.90;;;;;;5048526;28;20206;-51
2021/03/18 08:14:22;;;;;;;13.60;3.57;;;4.80;99.90;;;;;;5049956;28;20212;-51
2021/03/18 08:16:50;;;;;;;14.57;4.23;;;5.00;99.90;;;;;;5035774;28;20339;-49
2021/03/18 08:19:20;;;;;;;10.10;3.90;;;5.10;99.90;;;;;;5048616;28;20204;-47
2021/03/18 08:21:54;;;;;;;7.13;3.20;;;5.20;99.90;;;;;;5051551;28;20220;-48
2021/03/18 08:24:20;;;;;;;11.80;3.67;;;5.30;99.90;;;;;;5053393;28;20603;-48
2021/03/18 08:26:56;;;;;;;6.57;3.10;;;5.70;99.90;;;;;;5055716;28;20207;-51
2021/03/18 08:29:26;;;;;;;5.37;3.83;;;5.70;99.90;;;;;;5051002;28;20208;-50
2021/03/18 08:31:59;;;;;;;5.50;3.03;;;5.50;99.90;;;;;;5052192;28;20683;-49
2021/03/18 08:35:02;;;;;;;8.40;3.17;;;5.70;99.90;;;;;;5051258;28;20753;-49
2021/03/18 08:37:46;;;;;;;13.90;4.07;;;5.90;99.90;;;;;;5043981;28;20216;-49
2021/03/18 08:40:18;;;;;;;9.00;3.00;;;5.90;99.90;;;;;;5046508;28;20298;-49
2021/03/18 08:42:47;;;;;;;4.63;3.23;;;6.00;99.90;;;;;;5051999;28;20246;-49
2021/03/18 08:45:19;;;;;;;6.33;3.27;;;5.90;99.90;;;;;;5052588;28;20664;-48
2021/03/18 08:47:51;;;;;;;8.47;2.77;;;6.00;99.90;;;;;;5049781;28;20679;-46
2021/03/18 08:50:26;;;;;;;8.43;3.70;;;6.00;99.90;;;;;;5040672;28;20221;-50
2021/03/18 08:52:54;;;;;;;5.70;2.87;;;6.00;99.90;;;;;;5048671;28;20214;-49
2021/03/18 08:55:42;;;;;;;9.53;3.80;;;6.00;99.90;;;;;;5035575;28;20281;-49
2021/03/18 08:58:09;;;;;;;6.37;3.20;;;6.50;99.90;;;;;;5047895;28;20203;-49
2021/03/18 09:00:38;;;;;;;12.30;3.50;;;6.60;99.90;;;;;;5043069;28;20235;-49
2021/03/18 09:03:06;;;;;;;8.30;3.53;;;6.70;99.90;;;;;;5043667;28;20314;-48
2021/03/18 09:05:34;;;;;;;10.13;3.67;;;7.10;84.10;;;;;;5044737;28;20220;-48
2021/03/18 09:08:06;;;;;;;9.50;3.67;;;7.10;99.90;;;;;;5044667;28;24122;-49
2021/03/18 09:10:35;;;;;;;8.67;3.07;;;7.50;99.90;;;;;;5051057;28;20196;-49
2021/03/18 09:13:15;;;;;;;12.90;3.23;;;7.40;18.50;;;;;;5038391;28;20206;-50
2021/03/18 09:15:44;;;;;;;8.73;3.70;;;7.30;92.30;;;;;;5054655;28;20207;-48
2021/03/18 09:18:25;;;;;;;14.20;4.03;;;7.00;97.30;;;;;;5052344;28;20258;-48
2021/03/18 09:21:02;;;;;;;11.27;4.07;;;7.10;99.90;;;;;;5052739;28;20242;-48
2021/03/18 09:23:31;;;;;;;10.90;3.70;;;7.40;63.60;;;;;;5053986;28;20231;-49
2021/03/18 09:26:01;;;;;;;5.33;3.30;;;7.10;88.50;;;;;;5044138;28;20192;-48
2021/03/18 09:28:46;;;;;;;8.53;3.97;;;7.00;99.90;;;;;;5042391;28;20274;-48
2021/03/18 09:31:13;;;;;;;9.10;4.00;;;6.90;99.90;;;;;;5041129;28;20208;-49
2021/03/18 09:33:43;;;;;;;8.80;3.63;;;7.00;99.90;;;;;;5050593;28;20200;-49
2021/03/18 09:36:17;;;;;;;10.87;3.53;;;6.90;99.90;;;;;;5046552;28;20565;-50
2021/03/18 09:39:14;;;;;;;12.80;4.07;;;6.90;99.90;;;;;;5043175;28;20199;-48
2021/03/18 09:41:46;;;;;;;10.70;3.53;;;6.90;99.90;;;;;;5045594;28;20219;-49
2021/03/18 09:44:26;;;;;;;14.53;3.40;;;6.80;99.90;;;;;;5043976;28;21265;-50
2021/03/18 09:47:05;;;;;;;6.50;3.90;;;6.60;99.90;;;;;;5043505;28;20207;-49
2021/03/18 09:49:34;;;;;;;12.40;3.60;;;6.50;99.90;;;;;;5050071;28;20207;-50
2021/03/18 09:52:06;;;;;;;11.30;4.13;;;6.70;99.90;;;;;;5046863;28;20238;-48
2021/03/18 09:54:34;;;;;;;15.30;4.30;;;6.70;99.90;;;;;;5047018;28;20209;-49
2021/03/18 09:57:06;;;;;;;15.60;5.47;;;6.70;99.90;;;;;;5042430;28;20832;-49
2021/03/18 09:59:33;;;;;;;10.47;3.50;;;6.60;99.90;;;;;;5043688;28;20703;-48
2021/03/18 10:02:00;;;;;;;10.70;4.10;;;6.70;99.90;;;;;;5045667;28;20694;-49
2021/03/18 10:04:27;;;;;;;15.83;4.17;;;6.50;99.90;;;;;;5051921;28;20203;-50
2021/03/18 10:06:58;;;;;;;20.83;6.73;;;6.70;99.90;;;;;;5047071;28;20257;-50
2021/03/18 10:09:27;;;;;;;16.87;5.17;;;6.50;99.90;;;;;;5048049;28;20233;-50
2021/03/18 10:11:53;;;;;;;11.17;4.10;;;6.40;99.90;;;;;;5039634;28;20218;-50
2021/03/18 10:14:25;;;;;;;12.27;4.30;;;6.30;99.90;;;;;;5043476;28;20269;-48
2021/03/18 10:17:27;;;;;;;16.43;5.30;;;6.60;99.90;;;;;;5039246;28;20658;-48
2021/03/18 10:20:25;;;;;;;8.57;4.53;;;6.50;99.90;;;;;;5042772;28;20210;-48
2021/03/18 10:23:07;;;;;;;12.53;5.03;;;6.40;99.90;;;;;;5042679;28;20235;-49
2021/03/18 10:25:36;;;;;;;20.23;7.03;;;6.40;99.90;;;;;;5043978;28;20635;-49
2021/03/18 10:28:08;;;;;;;17.23;7.17;;;6.30;99.90;;;;;;5034391;28;20220;-48
2021/03/18 10:30:45;;;;;;;20.03;6.27;;;6.40;99.90;;;;;;5042634;28;20964;-51
2021/03/18 10:33:11;;;;;;;14.43;5.80;;;6.50;99.90;;;;;;5049545;28;20218;-49
2021/03/18 10:35:59;;;;;;;15.33;6.33;;;6.50;99.90;;;;;;5051265;28;20671;-49
2021/03/18 10:38:34;;;;;;;18.43;5.20;;;6.90;99.90;;;;;;5034419;28;20196;-48
2021/03/18 10:41:08;;;;;;;13.93;4.80;;;7.00;99.90;;;;;;5044463;28;20310;-49
2021/03/18 10:43:38;;;;;;;15.77;5.67;;;6.80;99.90;;;;;;5055683;28;20234;-49
2021/03/18 10:46:08;;;;;;;16.83;5.37;;;6.70;99.90;;;;;;5045492;28;22838;-48
2021/03/18 10:48:36;;;;;;;15.37;6.50;;;6.50;99.90;;;;;;5046501;28;20210;-49
2021/03/18 10:51:09;;;;;;;13.73;6.90;;;6.40;99.90;;;;;;5045142;28;20203;-48
2021/03/18 10:53:40;;;;;;;19.27;7.07;;;6.40;99.90;;;;;;5043458;28;20647;-49
2021/03/18 10:56:10;;;;;;;16.73;7.73;;;6.50;99.90;;;;;;5043661;28;20208;-48
2021/03/18 10:58:38;;;;;;;16.63;7.70;;;6.60;99.90;;;;;;5046534;28;20210;-48
2021/03/18 11:01:10;;;;;;;16.73;6.30;;;6.60;99.90;;;;;;5045294;28;20338;-48
2021/03/18 11:03:39;;;;;;;11.63;6.30;;;6.60;99.90;;;;;;5046228;28;20219;-49
2021/03/18 11:06:18;;;;;;;16.33;7.10;;;6.70;99.90;;;;;;5041693;28;20332;-49
2021/03/18 11:08:47;;;;;;;19.20;7.03;;;6.60;99.90;;;;;;5043299;28;20199;-49
2021/03/18 11:11:19;;;;;;;17.13;5.93;;;6.80;99.90;;;;;;5044326;28;20250;-50
2021/03/18 11:13:46;;;;;;;11.13;5.67;;;6.90;99.90;;;;;;5043300;28;20196;-50
2021/03/18 11:16:23;;;;;;;14.63;5.93;;;6.80;99.90;;;;;;5042674;28;20757;-49
2021/03/18 11:18:56;;;;;;;16.87;5.87;;;6.80;99.90;;;;;;5028714;28;20207;-49
2021/03/18 11:21:24;;;;;;;24.67;6.50;;;7.00;99.90;;;;;;5041099;28;20411;-49
2021/03/18 11:24:02;;;;;;;12.90;7.27;;;6.90;99.90;;;;;;5045518;28;20241;-50
2021/03/18 11:26:29;;;;;;;18.67;6.53;;;6.90;99.90;;;;;;5048344;28;20290;-49
2021/03/18 11:29:03;;;;;;;14.20;6.97;;;6.80;99.90;;;;;;5044152;28;20203;-48
2021/03/18 11:31:30;;;;;;;16.03;6.23;;;7.10;99.90;;;;;;5044654;28;20206;-48
2021/03/18 11:34:16;;;;;;;15.57;6.17;;;7.20;99.90;;;;;;5042833;28;20207;-49
2021/03/18 11:36:44;;;;;;;12.93;5.70;;;7.00;99.90;;;;;;5045259;28;21120;-49
2021/03/18 11:39:11;;;;;;;12.00;6.53;;;6.90;99.90;;;;;;5047547;28;20236;-48
2021/03/18 11:41:37;;;;;;;15.27;6.17;;;6.70;99.90;;;;;;5047332;28;20305;-49
2021/03/18 11:44:04;;;;;;;12.37;5.97;;;6.60;99.90;;;;;;5048471;28;20288;-50
2021/03/18 11:46:30;;;;;;;20.40;6.33;;;6.80;99.90;;;;;;5031582;28;20223;-50
2021/03/18 11:48:57;;;;;;;18.87;6.43;;;7.00;99.90;;;;;;5043123;28;20201;-48
2021/03/18 11:51:23;;;;;;;17.53;6.53;;;7.10;99.90;;;;;;5023843;28;20683;-49
2021/03/18 11:53:50;;;;;;;19.00;6.50;;;7.20;99.90;;;;;;5051406;28;20681;-50
2021/03/18 11:56:18;;;;;;;15.57;6.13;;;6.90;99.90;;;;;;5053893;28;20202;-50
2021/03/18 11:58:44;;;;;;;18.30;6.50;;;6.80;99.90;;;;;;5054353;28;20206;-50
2021/03/18 12:01:11;;;;;;;17.37;6.13;;;6.70;99.90;;;;;;5050354;28;21709;-47
2021/03/18 12:03:38;;;;;;;13.13;6.23;;;6.80;99.90;;;;;;5053713;28;20201;-49
2021/03/18 12:06:04;;;;;;;15.27;6.20;;;6.80;99.90;;;;;;5052978;28;20209;-48
2021/03/18 12:08:31;;;;;;;21.67;8.07;;;6.70;99.90;;;;;;5046483;28;20202;-50
2021/03/18 12:11:03;;;;;;;17.77;7.27;;;6.70;99.90;;;;;;5049779;28;20538;-50
2021/03/18 12:13:30;;;;;;;16.43;5.50;;;6.70;99.90;;;;;;5054375;28;20218;-49
2021/03/18 12:15:57;;;;;;;14.73;6.30;;;6.60;99.90;;;;;;5043244;28;20655;-47
2021/03/18 12:18:24;;;;;;;10.67;6.37;;;6.60;99.90;;;;;;5047095;28;20723;-50
2021/03/18 12:20:51;;;;;;;15.40;7.20;;;6.80;99.90;;;;;;5045512;28;20196;-50
2021/03/18 12:23:17;;;;;;;16.97;6.63;;;7.00;99.90;;;;;;5053382;28;20247;-49
2021/03/18 12:25:44;;;;;;;20.33;6.37;;;7.00;99.90;;;;;;5053573;28;20277;-49
2021/03/18 12:28:11;;;;;;;11.67;5.73;;;6.80;99.90;;;;;;5051039;28;20206;-49
2021/03/18 12:30:37;;;;;;;14.03;5.77;;;6.70;99.90;;;;;;5048269;28;20212;-50
2021/03/18 12:33:03;;;;;;;14.27;6.33;;;6.80;99.90;;;;;;5038731;28;20315;-49
2021/03/18 12:35:30;;;;;;;16.93;6.73;;;7.00;99.90;;;;;;5045334;28;20248;-50
2021/03/18 12:37:56;;;;;;;13.03;6.07;;;7.00;99.90;;;;;;5044416;28;20620;-50
2021/03/18 12:40:23;;;;;;;18.00;5.03;;;7.30;99.90;;;;;;5027273;28;20207;-50
2021/03/18 12:42:51;;;;;;;17.93;5.93;;;7.10;99.90;;;;;;5043014;28;20216;-50
2021/03/18 12:45:18;;;;;;;14.40;5.13;;;6.80;99.90;;;;;;5031221;28;20291;-50
2021/03/18 12:47:45;;;;;;;13.17;5.80;;;6.80;99.90;;;;;;5042176;28;20715;-47
2021/03/18 12:50:16;;;;;;;13.23;5.87;;;7.00;99.90;;;;;;5042962;28;20205;-51
2021/03/18 12:52:42;;;;;;;13.47;5.00;;;7.00;99.90;;;;;;5042983;28;21402;-51
2021/03/18 12:55:09;;;;;;;19.07;5.97;;;7.00;99.90;;;;;;5040124;28;20219;-51
2021/03/18 12:57:48;;;;;;;18.57;5.90;;;7.20;99.90;;;;;;5043653;28;20211;-50
2021/03/18 13:00:18;;;;;;;19.43;5.90;;;7.30;99.90;;;;;;5047382;28;20251;-48
2021/03/18 13:02:45;;;;;;;15.43;5.23;;;7.60;99.90;;;;;;5047957;28;20659;-51
2021/03/18 13:05:12;;;;;;;14.67;4.17;;;8.00;99.90;;;;;;5031933;28;20212;-50
2021/03/18 13:07:38;;;;;;;17.50;4.80;;;7.80;99.90;;;;;;5047868;28;20208;-50
2021/03/18 13:10:07;;;;;;;15.37;5.10;;;8.00;99.90;;;;;;5048663;28;20615;-50
2021/03/18 13:12:34;;;;;;;18.00;4.60;;;8.20;99.90;;;;;;5047467;28;20659;-51